Time;durP1;ratioP1;P1;durP2;ratioP2;P2;SDS_P1;SDS_P2;PMS_P1;PMS_P2;Temp;Humidity;BMP_temperature;BMP_pressure;BME280_temperature;BME280_humidity;BME280_pressure;Samples;Min_cycle;Max_cycle;Signal;HPM_P1;HPM_P2
2022/01/15 00:01:48;;;;;;;14.60;7.67;;;1.90;99.90;;;;;;4142300;28;20700;-58
2022/01/15 00:03:49;;;;;;;11.97;6.37;;;2.00;99.90;;;;;;4141647;28;20271;-58
2022/01/15 00:05:51;;;;;;;15.23;7.03;;;2.00;99.90;;;;;;4141750;28;20330;-57
2022/01/15 00:07:52;;;;;;;12.77;6.07;;;2.00;99.90;;;;;;4141790;28;20747;-55
2022/01/15 00:09:56;;;;;;;11.97;6.37;;;2.00;99.90;;;;;;4141445;28;20259;-60
2022/01/15 00:11:58;;;;;;;14.40;6.40;;;2.00;99.90;;;;;;4141599;28;20286;-58
2022/01/15 00:14:12;;;;;;;16.57;8.17;;;1.90;99.90;;;;;;4141699;28;20354;-57
2022/01/15 00:16:27;;;;;;;13.87;7.47;;;1.90;99.90;;;;;;4141764;28;20849;-59
2022/01/15 00:18:41;;;;;;;15.23;7.27;;;1.90;99.90;;;;;;4141445;28;20271;-56
2022/01/15 00:20:42;;;;;;;14.13;6.63;;;1.80;99.90;;;;;;4141327;28;20798;-56
2022/01/15 00:22:43;;;;;;;12.30;6.80;;;1.80;99.90;;;;;;4141281;28;20290;-57
2022/01/15 00:24:46;;;;;;;19.10;8.03;;;1.80;99.90;;;;;;4142006;28;20698;-57
2022/01/15 00:26:47;;;;;;;14.50;7.73;;;1.70;99.90;;;;;;4141111;28;20283;-56
2022/01/15 00:28:48;;;;;;;19.70;8.63;;;1.80;99.90;;;;;;4141268;28;20271;-59
2022/01/15 00:30:49;;;;;;;16.97;7.97;;;1.80;99.90;;;;;;4141174;28;20330;-57
2022/01/15 00:32:53;;;;;;;20.30;7.80;;;1.80;99.90;;;;;;4141515;28;20276;-55
2022/01/15 00:34:54;;;;;;;23.50;9.40;;;1.80;99.90;;;;;;4141629;28;20302;-58
2022/01/15 00:36:56;;;;;;;23.20;7.57;;;1.80;99.90;;;;;;4141477;28;20386;-58
2022/01/15 00:38:57;;;;;;;21.63;7.93;;;1.80;99.90;;;;;;4141885;28;20326;-54
2022/01/15 00:40:58;;;;;;;19.30;8.53;;;1.80;99.90;;;;;;4141457;28;20271;-55
2022/01/15 00:43:01;;;;;;;21.10;8.27;;;1.70;99.90;;;;;;4141696;28;20318;-62
2022/01/15 00:45:07;;;;;;;20.57;8.30;;;1.70;99.90;;;;;;4141408;28;20271;-52
2022/01/15 00:47:08;;;;;;;20.40;8.63;;;1.60;99.90;;;;;;4140974;28;20330;-58
2022/01/15 00:49:13;;;;;;;24.40;8.87;;;1.60;99.90;;;;;;4141038;28;20354;-56
2022/01/15 00:51:14;;;;;;;20.50;8.13;;;1.50;99.90;;;;;;4137081;28;20267;-59
2022/01/15 00:53:15;;;;;;;20.37;8.10;;;1.60;99.90;;;;;;4130478;28;20268;-55
2022/01/15 00:55:19;;;;;;;21.30;8.97;;;1.50;99.90;;;;;;4125789;28;20338;-59
2022/01/15 00:57:23;;;;;;;23.73;9.00;;;1.50;99.90;;;;;;4124748;28;20310;-57
2022/01/15 00:59:25;;;;;;;22.50;9.40;;;1.50;99.90;;;;;;4125185;28;20323;-51
2022/01/15 01:01:26;;;;;;;20.87;9.20;;;1.40;99.90;;;;;;4134616;28;20325;-54
2022/01/15 01:03:27;;;;;;;20.77;9.50;;;1.40;99.90;;;;;;4140162;28;20279;-56
2022/01/15 01:05:28;;;;;;;20.23;9.63;;;1.40;99.90;;;;;;4139252;28;20683;-56
2022/01/15 01:07:29;;;;;;;17.47;8.37;;;1.30;99.90;;;;;;4132825;28;20342;-57
2022/01/15 01:09:55;;;;;;;14.73;8.40;;;1.30;99.90;;;;;;4125539;28;20276;-57
2022/01/15 01:11:58;;;;;;;20.20;8.97;;;1.30;99.90;;;;;;4125497;28;20279;-55
2022/01/15 01:21:17;;;;;;;21.40;10.17;;;1.20;99.90;;;;;;4130505;28;19940;-55
2022/01/15 01:23:18;;;;;;;19.47;8.93;;;1.10;99.90;;;;;;4139186;28;20287;-59
2022/01/15 01:25:20;;;;;;;20.17;8.40;;;1.10;99.90;;;;;;4137311;28;20283;-57
2022/01/15 01:27:40;;;;;;;18.67;8.80;;;1.10;99.90;;;;;;4140280;28;20283;-54
2022/01/15 01:32:05;;;;;;;25.03;9.33;;;1.10;99.90;;;;;;4130795;28;20354;-55
2022/01/15 01:34:10;;;;;;;23.73;9.20;;;1.00;99.90;;;;;;4140312;28;20297;-58
2022/01/15 01:38:28;;;;;;;22.13;9.63;;;1.00;99.90;;;;;;4124624;28;20357;-56
2022/01/15 01:40:38;;;;;;;17.67;8.67;;;1.00;99.90;;;;;;4123853;28;20280;-57
2022/01/15 01:42:43;;;;;;;20.30;10.30;;;0.90;99.90;;;;;;4123760;28;20272;-54
2022/01/15 01:45:17;;;;;;;18.60;8.57;;;0.90;99.90;;;;;;4123972;28;20660;-57
2022/01/15 01:47:31;;;;;;;20.47;9.17;;;0.90;99.90;;;;;;4133415;28;20276;-54
2022/01/15 01:49:32;;;;;;;20.07;8.63;;;0.90;99.90;;;;;;4124490;28;20297;-56
2022/01/15 01:51:39;;;;;;;20.80;8.70;;;0.90;99.90;;;;;;4138696;28;20817;-55
2022/01/15 01:53:40;;;;;;;21.23;8.70;;;0.90;99.90;;;;;;4137868;28;20325;-57
2022/01/15 01:55:41;;;;;;;19.83;9.43;;;0.90;99.90;;;;;;4138490;28;20330;-58
2022/01/15 01:57:43;;;;;;;18.40;9.13;;;0.90;99.90;;;;;;4134934;28;20303;-55
2022/01/15 01:59:44;;;;;;;18.10;9.20;;;0.90;99.90;;;;;;4123946;28;20276;-55
2022/01/15 02:01:46;;;;;;;19.57;8.73;;;0.90;99.90;;;;;;4132994;28;20275;-59
2022/01/15 02:03:48;;;;;;;18.20;8.27;;;0.90;99.90;;;;;;4139213;28;20283;-57
2022/01/15 02:05:49;;;;;;;17.50;8.80;;;0.90;99.90;;;;;;4126520;28;20276;-57
2022/01/15 02:07:51;;;;;;;17.93;8.17;;;0.90;99.90;;;;;;4123667;28;20317;-56
2022/01/15 02:09:53;;;;;;;19.50;8.63;;;0.90;99.90;;;;;;4136785;28;20275;-56
2022/01/15 02:11:54;;;;;;;21.93;9.17;;;0.90;99.90;;;;;;4138420;28;20396;-55
2022/01/15 02:13:57;;;;;;;16.97;8.03;;;0.90;99.90;;;;;;4135387;28;20838;-56
2022/01/15 02:15:59;;;;;;;19.57;8.77;;;0.90;99.90;;;;;;4123931;28;20346;-58
2022/01/15 02:18:01;;;;;;;17.73;8.77;;;0.90;99.90;;;;;;4123538;28;20268;-56
2022/01/15 02:24:43;;;;;;;20.60;9.23;;;0.90;99.90;;;;;;4123966;28;20336;-55
2022/01/15 02:26:45;;;;;;;20.83;9.60;;;0.80;99.90;;;;;;4124621;28;20034;-55
2022/01/15 02:28:56;;;;;;;20.00;8.90;;;0.80;99.90;;;;;;4136591;28;20337;-52
2022/01/15 02:31:02;;;;;;;;;;;0.80;99.90;;;;;;4136917;28;20701;-56
2022/01/15 02:33:04;;;;;;;22.83;8.50;;;0.80;99.90;;;;;;4131458;28;19906;-55
2022/01/15 02:35:06;;;;;;;23.13;9.07;;;0.70;99.90;;;;;;4139587;28;20299;-55
2022/01/15 02:37:07;;;;;;;21.40;9.87;;;0.70;99.90;;;;;;4131765;28;20339;-55
2022/01/15 02:39:08;;;;;;;19.07;9.20;;;0.70;99.90;;;;;;4123457;28;20323;-55
2022/01/15 02:41:11;;;;;;;24.90;10.30;;;0.60;99.90;;;;;;4130439;28;20287;-57
2022/01/15 02:43:19;;;;;;;26.30;9.33;;;0.60;99.90;;;;;;4139462;28;20921;-53
2022/01/15 02:45:22;;;;;;;20.77;8.83;;;0.60;99.90;;;;;;4139446;28;20275;-58
2022/01/15 02:49:43;;;;;;;21.20;10.73;;;0.50;99.90;;;;;;4136698;28;20314;-57
2022/01/15 02:51:44;;;;;;;20.97;9.30;;;0.50;99.90;;;;;;4139233;28;20284;-57
2022/01/15 02:53:47;;;;;;;22.33;9.43;;;0.50;99.90;;;;;;4139511;28;20279;-58
2022/01/15 02:55:50;;;;;;;23.93;8.87;;;0.50;99.90;;;;;;4139876;28;20326;-57
2022/01/15 02:57:51;;;;;;;20.47;9.30;;;0.50;99.90;;;;;;4130697;28;20723;-57
2022/01/15 02:59:53;;;;;;;22.87;10.23;;;0.50;99.90;;;;;;4123469;28;20354;-58
2022/01/15 03:01:57;;;;;;;19.73;9.27;;;0.50;99.90;;;;;;4129595;28;20893;-55
2022/01/15 03:03:58;;;;;;;21.87;9.90;;;0.40;99.90;;;;;;4139466;28;20280;-56
2022/01/15 03:06:04;;;;;;;20.10;8.53;;;0.40;99.90;;;;;;4139353;28;20267;-57
2022/01/15 03:08:05;;;;;;;22.00;8.73;;;0.40;99.90;;;;;;4139340;28;20334;-55
2022/01/15 03:10:10;;;;;;;21.23;9.07;;;0.40;99.90;;;;;;4137841;28;20334;-59
2022/01/15 03:12:11;;;;;;;21.23;10.07;;;0.40;99.90;;;;;;4124302;28;20315;-52
2022/01/15 03:14:13;;;;;;;18.33;8.83;;;0.40;99.90;;;;;;4122933;28;20402;-57
2022/01/15 03:16:19;;;;;;;19.10;9.10;;;0.40;99.90;;;;;;4131800;28;20341;-55
2022/01/15 03:18:22;;;;;;;20.80;8.90;;;0.40;99.90;;;;;;4129551;28;20756;-58
2022/01/15 03:20:23;;;;;;;21.30;8.87;;;0.40;99.90;;;;;;4124465;28;20295;-53
2022/01/15 03:22:24;;;;;;;19.63;9.20;;;0.40;99.90;;;;;;4124357;28;20338;-55
2022/01/15 03:24:25;;;;;;;25.13;10.40;;;0.40;99.90;;;;;;4123068;28;20264;-55
2022/01/15 03:26:26;;;;;;;24.87;10.70;;;0.40;99.90;;;;;;4124148;28;20354;-57
2022/01/15 03:28:27;;;;;;;21.73;9.63;;;0.40;99.90;;;;;;4123813;28;20275;-55
2022/01/15 03:30:28;;;;;;;23.73;10.03;;;0.40;99.90;;;;;;4126864;28;20284;-56
2022/01/15 03:32:29;;;;;;;19.37;9.77;;;0.30;99.90;;;;;;4140182;28;20287;-55
2022/01/15 03:34:31;;;;;;;18.90;9.67;;;0.40;99.90;;;;;;4142210;28;20683;-58
2022/01/15 03:36:32;;;;;;;20.77;8.57;;;0.40;99.90;;;;;;4134542;28;20690;-55
2022/01/15 03:38:33;;;;;;;19.90;8.93;;;0.30;99.90;;;;;;4137780;28;20876;-57
2022/01/15 03:40:35;;;;;;;24.17;9.33;;;0.30;99.90;;;;;;4142213;28;20271;-57
2022/01/15 03:42:37;;;;;;;19.03;8.63;;;0.30;99.90;;;;;;4141683;28;20315;-65
2022/01/15 03:44:40;;;;;;;20.97;9.03;;;0.30;99.90;;;;;;4142328;28;20305;-53
2022/01/15 03:46:44;;;;;;;18.67;8.27;;;0.30;99.90;;;;;;4142184;28;20345;-63
2022/01/15 03:48:47;;;;;;;19.57;8.20;;;0.30;99.90;;;;;;4140122;28;20275;-58
2022/01/15 03:50:48;;;;;;;18.43;8.37;;;0.30;99.90;;;;;;4141251;28;20322;-57
2022/01/15 03:55:00;;;;;;;;;;;0.20;99.90;;;;;;4210972;23;20299;-54
2022/01/15 03:57:02;;;;;;;;;;;0.30;99.90;;;;;;4147209;28;19972;-55
2022/01/15 03:59:03;;;;;;;16.93;7.93;;;0.30;99.90;;;;;;4146184;28;19913;-51
2022/01/15 04:01:04;;;;;;;23.40;8.57;;;0.20;99.90;;;;;;4147028;28;20306;-55
2022/01/15 04:03:06;;;;;;;24.17;9.73;;;0.20;99.90;;;;;;4147263;28;20329;-50
2022/01/15 04:05:08;;;;;;;22.87;8.77;;;0.30;99.90;;;;;;4145474;28;20337;-53
2022/01/15 04:07:12;;;;;;;22.83;8.93;;;0.20;99.90;;;;;;4148152;28;20287;-56
2022/01/15 04:09:13;;;;;;;24.13;8.63;;;0.20;99.90;;;;;;4140528;28;20303;-53
2022/01/15 04:11:14;;;;;;;19.20;9.63;;;0.20;99.90;;;;;;4132761;28;20682;-64
2022/01/15 04:13:15;;;;;;;20.53;8.97;;;0.20;99.90;;;;;;4134738;28;20263;-53
2022/01/15 04:15:18;;;;;;;23.33;8.77;;;0.20;99.90;;;;;;4147142;28;20299;-55
2022/01/15 04:17:19;;;;;;;22.17;9.90;;;0.10;99.90;;;;;;4147227;28;20263;-52
2022/01/15 04:19:21;;;;;;;19.27;9.17;;;0.10;99.90;;;;;;4135472;28;20322;-56
2022/01/15 04:21:22;;;;;;;20.17;8.43;;;0.10;99.90;;;;;;4132205;28;20272;-55
2022/01/15 04:23:23;;;;;;;20.30;9.23;;;0.10;99.90;;;;;;4131157;28;20288;-58
2022/01/15 04:25:24;;;;;;;21.37;8.27;;;0.10;99.90;;;;;;4132958;28;20335;-61
2022/01/15 04:27:26;;;;;;;18.97;8.30;;;0.00;99.90;;;;;;4130496;28;20334;-52
2022/01/15 04:29:27;;;;;;;23.87;9.83;;;0.00;99.90;;;;;;4146835;28;20263;-53
2022/01/15 04:31:34;;;;;;;20.37;9.20;;;0.00;99.90;;;;;;4146467;28;20263;-53
2022/01/15 04:33:38;;;;;;;19.30;8.70;;;0.00;99.90;;;;;;4147515;28;20275;-54
2022/01/15 04:35:40;;;;;;;19.27;9.30;;;-0.10;99.90;;;;;;4144451;28;20326;-56
2022/01/15 04:37:45;;;;;;;21.63;8.67;;;-0.10;99.90;;;;;;4131725;28;20272;-52
2022/01/15 04:39:46;;;;;;;19.97;9.43;;;-0.10;99.90;;;;;;4142721;28;20275;-56
2022/01/15 04:41:48;;;;;;;19.40;9.37;;;-0.10;99.90;;;;;;4144280;28;20279;-51
2022/01/15 04:43:49;;;;;;;25.47;10.03;;;-0.20;99.90;;;;;;4132715;28;20330;-52
2022/01/15 04:45:50;;;;;;;22.10;9.57;;;-0.20;99.90;;;;;;4138991;28;20279;-59
2022/01/15 04:47:51;;;;;;;21.87;9.87;;;-0.30;99.90;;;;;;4144776;28;20306;-54
2022/01/15 04:49:54;;;;;;;25.20;10.13;;;-0.30;99.90;;;;;;4131362;28;20291;-53
2022/01/15 04:51:56;;;;;;;23.17;10.10;;;-0.40;99.90;;;;;;4144668;28;20259;-56
2022/01/15 04:53:57;;;;;;;22.57;10.73;;;-0.40;99.90;;;;;;4145798;28;20698;-56
2022/01/15 04:55:58;;;;;;;21.47;9.33;;;-0.50;99.90;;;;;;4141786;28;20775;-57
2022/01/15 04:58:00;;;;;;;23.10;9.73;;;-0.50;99.90;;;;;;4142106;28;20345;-59
2022/01/15 05:00:04;;;;;;;21.17;10.07;;;-0.50;99.90;;;;;;4143183;28;20280;-63
2022/01/15 05:02:05;;;;;;;23.97;9.63;;;-0.60;99.90;;;;;;4141095;28;20357;-58
2022/01/15 05:04:06;;;;;;;30.17;10.80;;;-0.60;99.90;;;;;;4142884;28;20272;-56
2022/01/15 05:06:08;;;;;;;23.20;9.80;;;-0.60;99.90;;;;;;4133448;28;20327;-56
2022/01/15 05:08:12;;;;;;;23.97;9.77;;;-0.70;99.90;;;;;;4126639;28;20264;-56
2022/01/15 05:10:16;;;;;;;19.63;9.93;;;-0.70;99.90;;;;;;4155764;28;20274;-54
2022/01/15 05:12:27;;;;;;;22.00;10.73;;;-0.70;99.90;;;;;;4130294;28;20292;-55
2022/01/15 05:14:29;;;;;;;25.07;10.13;;;-0.70;99.90;;;;;;4136464;28;20785;-53
2022/01/15 05:16:30;;;;;;;27.87;9.93;;;-0.80;99.90;;;;;;4142879;28;20263;-57
2022/01/15 05:18:34;;;;;;;23.03;9.17;;;-0.80;99.90;;;;;;4139434;28;20346;-54
2022/01/15 05:20:40;;;;;;;21.93;9.67;;;-0.80;99.90;;;;;;4132237;28;20354;-58
2022/01/15 05:22:42;;;;;;;20.80;8.70;;;-0.80;99.90;;;;;;4124837;28;20743;-64
2022/01/15 05:24:43;;;;;;;18.27;8.60;;;-0.90;99.90;;;;;;4125673;28;20268;-57
2022/01/15 05:26:44;;;;;;;20.13;8.40;;;-0.90;99.90;;;;;;4134190;28;20275;-53
2022/01/15 05:28:45;;;;;;;20.83;8.60;;;-0.90;99.90;;;;;;4140456;28;20284;-57
2022/01/15 05:30:46;;;;;;;18.20;8.03;;;-0.90;99.90;;;;;;4140009;28;20285;-55
2022/01/15 05:32:47;;;;;;;22.23;9.90;;;-0.90;99.90;;;;;;4124818;28;20264;-58
2022/01/15 05:34:51;;;;;;;21.00;9.13;;;-0.80;99.90;;;;;;4137407;28;20365;-58
2022/01/15 05:36:52;;;;;;;17.33;8.63;;;-0.80;99.90;;;;;;4124467;28;20334;-57
2022/01/15 05:38:53;;;;;;;21.50;8.77;;;-0.80;99.90;;;;;;4126942;28;20369;-53
2022/01/15 05:40:54;;;;;;;18.30;8.13;;;-0.80;99.90;;;;;;4140405;28;20334;-53
2022/01/15 05:42:55;;;;;;;24.43;8.57;;;-0.80;99.90;;;;;;4141957;28;20275;-58
2022/01/15 05:44:56;;;;;;;21.70;9.07;;;-0.80;99.90;;;;;;4128519;28;20754;-58
2022/01/15 05:46:57;;;;;;;16.73;7.87;;;-0.80;99.90;;;;;;4136573;28;20337;-54
2022/01/15 05:48:59;;;;;;;15.73;7.93;;;-0.80;99.90;;;;;;4125516;28;20284;-53
2022/01/15 05:51:00;;;;;;;20.23;9.20;;;-0.80;99.90;;;;;;4140292;28;20299;-55
2022/01/15 05:53:03;;;;;;;25.30;10.93;;;-0.80;99.90;;;;;;4138727;28;20287;-59
2022/01/15 05:55:05;;;;;;;34.07;16.77;;;-0.80;99.90;;;;;;4141423;28;20820;-53
2022/01/15 05:57:07;;;;;;;33.23;14.73;;;-0.80;99.90;;;;;;4139248;28;20682;-54
2022/01/15 05:59:10;;;;;;;48.43;21.27;;;-0.80;99.90;;;;;;4141637;28;20817;-59
2022/01/15 06:01:14;;;;;;;41.13;17.77;;;-0.80;99.90;;;;;;4138594;28;20342;-62
2022/01/15 06:03:15;;;;;;;33.93;14.80;;;-0.90;99.90;;;;;;4138811;28;20302;-54
2022/01/15 06:05:16;;;;;;;29.43;12.40;;;-0.90;99.90;;;;;;4140774;28;21062;-56
2022/01/15 06:07:17;;;;;;;22.37;9.80;;;-0.90;99.90;;;;;;4140435;28;20263;-58
2022/01/15 06:09:18;;;;;;;21.23;9.07;;;-0.90;99.90;;;;;;4141343;28;20260;-58
2022/01/15 06:11:20;;;;;;;22.23;9.13;;;-0.90;99.90;;;;;;4134137;28;20822;-55
2022/01/15 06:13:23;;;;;;;20.27;9.27;;;-1.00;99.90;;;;;;4131783;28;20317;-58
2022/01/15 06:15:25;;;;;;;22.13;8.77;;;-0.90;99.90;;;;;;4138429;28;20383;-57
2022/01/15 06:17:26;;;;;;;23.63;9.23;;;-0.90;99.90;;;;;;4141990;28;20401;-59
2022/01/15 06:19:27;;;;;;;22.53;9.73;;;-0.90;99.90;;;;;;4140687;28;20771;-56
2022/01/15 06:21:30;;;;;;;25.27;11.80;;;-0.80;99.90;;;;;;4130289;28;20942;-57
2022/01/15 06:23:31;;;;;;;25.80;14.27;;;-0.60;99.90;;;;;;4125046;28;20338;-57
2022/01/15 06:25:33;;;;;;;25.20;11.43;;;-0.40;99.90;;;;;;4125654;28;20280;-53
2022/01/15 06:27:34;;;;;;;18.10;8.70;;;-0.30;99.90;;;;;;4123904;28;20327;-57
2022/01/15 06:29:35;;;;;;;18.10;8.60;;;-0.10;99.90;;;;;;4125498;28;20323;-56
2022/01/15 06:31:36;;;;;;;20.83;9.03;;;0.00;99.90;;;;;;4135486;28;20658;-63
2022/01/15 06:33:37;;;;;;;17.83;8.77;;;0.30;99.90;;;;;;4133233;28;20326;-58
2022/01/15 06:35:39;;;;;;;27.00;9.17;;;0.50;99.90;;;;;;4128556;28;20354;-57
2022/01/15 06:37:40;;;;;;;17.93;8.20;;;0.80;99.90;;;;;;4133169;28;20819;-56
2022/01/15 06:39:42;;;;;;;23.10;11.47;;;1.10;99.90;;;;;;4134010;28;20284;-57
2022/01/15 06:41:43;;;;;;;19.43;8.57;;;1.30;99.90;;;;;;4136748;28;20306;-64
2022/01/15 06:43:44;;;;;;;20.67;8.97;;;1.60;99.90;;;;;;4125757;28;20776;-60
2022/01/15 06:45:45;;;;;;;19.93;8.53;;;1.60;99.90;;;;;;4123855;28;20276;-59
2022/01/15 06:47:46;;;;;;;21.00;8.90;;;1.60;99.90;;;;;;4125086;28;20823;-61
2022/01/15 06:49:47;;;;;;;18.53;9.47;;;1.70;99.90;;;;;;4123200;28;20314;-59
2022/01/15 06:51:49;;;;;;;20.47;9.07;;;1.90;99.90;;;;;;4137312;28;20263;-58
2022/01/15 06:53:50;;;;;;;16.67;8.27;;;2.10;99.90;;;;;;4137611;28;20332;-60
2022/01/15 06:55:52;;;;;;;18.10;8.17;;;2.40;99.90;;;;;;4138724;28;20674;-61
2022/01/15 06:57:53;;;;;;;21.47;10.03;;;2.80;99.90;;;;;;4125233;28;20291;-61
2022/01/15 06:59:54;;;;;;;21.30;9.60;;;3.00;99.90;;;;;;4124519;28;20264;-56
2022/01/15 07:01:56;;;;;;;27.20;8.83;;;3.10;99.90;;;;;;4137342;28;20290;-63
2022/01/15 07:03:57;;;;;;;23.10;10.17;;;3.30;99.90;;;;;;4139545;28;20279;-61
2022/01/15 07:05:58;;;;;;;42.20;18.90;;;3.60;99.90;;;;;;4139281;28;20092;-60
2022/01/15 07:07:59;;;;;;;26.90;13.13;;;3.40;99.90;;;;;;4137609;28;20349;-56
2022/01/15 07:10:00;;;;;;;49.67;21.63;;;3.30;99.90;;;;;;4136670;28;20160;-58
2022/01/15 07:12:03;;;;;;;37.13;17.40;;;3.30;99.90;;;;;;4138736;28;20583;-60
2022/01/15 07:14:04;;;;;;;18.77;8.97;;;3.40;99.90;;;;;;4142803;28;20041;-58
2022/01/15 07:16:05;;;;;;;19.13;9.13;;;3.30;99.90;;;;;;4141014;28;20038;-54
2022/01/15 07:18:08;;;;;;;26.63;12.63;;;3.40;99.90;;;;;;4143135;28;20172;-64
2022/01/15 07:20:11;;;;;;;19.57;8.43;;;3.70;99.90;;;;;;4140840;28;20099;-59
2022/01/15 07:22:12;;;;;;;15.67;6.80;;;3.70;99.90;;;;;;4142822;28;20076;-59
2022/01/15 07:24:14;;;;;;;25.00;12.37;;;3.80;99.90;;;;;;4127892;28;20132;-59
2022/01/15 07:26:15;;;;;;;19.20;7.60;;;3.90;99.90;;;;;;4127357;28;20038;-58
2022/01/15 07:28:18;;;;;;;15.33;6.87;;;3.90;99.90;;;;;;4124756;28;20089;-59
2022/01/15 07:30:20;;;;;;;12.63;6.30;;;3.70;99.90;;;;;;4141364;28;20030;-61
2022/01/15 07:32:21;;;;;;;11.10;6.03;;;3.70;99.90;;;;;;4136144;28;20030;-59
2022/01/15 07:34:22;;;;;;;15.90;7.07;;;3.70;99.90;;;;;;4127043;28;20030;-64
2022/01/15 07:36:23;;;;;;;13.43;6.27;;;3.80;99.90;;;;;;4133028;28;20107;-53
2022/01/15 07:38:25;;;;;;;8.83;4.50;;;3.90;99.90;;;;;;4127515;28;20058;-58
2022/01/15 07:40:26;;;;;;;13.30;4.87;;;3.90;99.90;;;;;;4127081;28;20037;-62
2022/01/15 07:42:34;;;;;;;9.67;4.47;;;3.90;99.90;;;;;;4138998;28;20029;-58
2022/01/15 07:44:35;;;;;;;12.53;4.77;;;3.90;99.90;;;;;;4142073;28;20072;-58
2022/01/15 07:46:37;;;;;;;9.37;4.60;;;3.90;99.90;;;;;;4141007;28;20038;-60
2022/01/15 07:48:38;;;;;;;14.63;5.60;;;3.80;99.90;;;;;;4142634;28;20452;-58
2022/01/15 07:50:39;;;;;;;10.67;4.97;;;3.80;99.90;;;;;;4133515;28;20120;-64
2022/01/15 07:52:40;;;;;;;10.53;5.67;;;4.10;99.90;;;;;;4127120;28;20078;-61
2022/01/15 07:54:41;;;;;;;11.90;4.70;;;4.10;99.90;;;;;;4085062;28;1182124;-54
2022/01/15 07:56:45;;;;;;;9.60;5.03;;;4.20;99.90;;;;;;4127193;28;20054;-67
2022/01/15 07:58:46;;;;;;;15.57;5.40;;;4.60;99.90;;;;;;4141627;28;20042;-55
2022/01/15 08:00:47;;;;;;;11.63;5.73;;;4.90;99.90;;;;;;4141276;28;20057;-57
2022/01/15 08:02:48;;;;;;;13.37;6.03;;;4.90;99.90;;;;;;4125966;28;20077;-59
2022/01/15 08:04:49;;;;;;;8.70;5.37;;;5.00;99.90;;;;;;4127088;28;20051;-60
2022/01/15 08:06:50;;;;;;;13.33;4.87;;;4.80;99.90;;;;;;4126458;28;20026;-57
2022/01/15 08:08:51;;;;;;;17.73;5.97;;;4.70;99.90;;;;;;4126303;28;20030;-60
2022/01/15 08:10:55;;;;;;;11.13;4.63;;;4.60;99.90;;;;;;4132378;28;20575;-60
2022/01/15 08:12:56;;;;;;;10.20;5.30;;;4.50;99.90;;;;;;4140858;28;20092;-61
2022/01/15 08:14:57;;;;;;;10.23;5.57;;;4.30;99.90;;;;;;4126675;28;20493;-57
2022/01/15 08:16:59;;;;;;;9.87;5.20;;;4.30;99.90;;;;;;4125794;28;20054;-59
2022/01/15 08:19:00;;;;;;;10.37;4.97;;;4.40;99.90;;;;;;4126789;28;20034;-57
2022/01/15 08:21:03;;;;;;;13.43;4.53;;;4.30;99.90;;;;;;4131407;28;20553;-62
2022/01/15 08:23:04;;;;;;;10.07;3.87;;;4.20;99.90;;;;;;4127834;28;20072;-63
2022/01/15 08:25:05;;;;;;;9.73;3.53;;;4.00;99.90;;;;;;4125629;28;20096;-60
2022/01/15 08:27:07;;;;;;;9.43;3.93;;;4.10;99.90;;;;;;4126889;28;20576;-58
2022/01/15 08:29:08;;;;;;;10.13;3.63;;;4.20;99.90;;;;;;4127094;28;20307;-57
2022/01/15 08:31:09;;;;;;;7.10;3.00;;;4.20;99.90;;;;;;4140992;28;20544;-60
2022/01/15 08:33:14;;;;;;;12.50;3.30;;;3.90;99.90;;;;;;4137025;28;20280;-64
2022/01/15 08:35:15;;;;;;;26.73;8.27;;;3.80;99.90;;;;;;4127464;28;20272;-66
2022/01/15 08:37:16;;;;;;;9.73;3.67;;;3.70;99.90;;;;;;4125499;28;20323;-56
2022/01/15 08:39:17;;;;;;;10.20;3.57;;;3.80;99.90;;;;;;4126931;28;20692;-61
2022/01/15 08:41:21;;;;;;;5.73;2.47;;;3.80;99.90;;;;;;4124706;28;20321;-59
2022/01/15 08:43:22;;;;;;;6.90;2.70;;;3.90;99.90;;;;;;4128595;28;20313;-57
2022/01/15 08:45:23;;;;;;;7.97;3.23;;;3.70;99.90;;;;;;4137728;28;20319;-58
2022/01/15 08:47:25;;;;;;;13.47;3.30;;;3.60;99.90;;;;;;4136287;28;20361;-57
2022/01/15 08:49:26;;;;;;;17.90;5.70;;;3.60;99.90;;;;;;4141781;28;20683;-59
2022/01/15 08:51:29;;;;;;;43.03;17.80;;;3.70;99.90;;;;;;4139789;28;20276;-59
2022/01/15 08:53:30;;;;;;;33.73;13.90;;;3.80;99.90;;;;;;4131960;28;20706;-62
2022/01/15 08:55:32;;;;;;;23.33;10.57;;;4.00;99.90;;;;;;4132288;28;20283;-61
2022/01/15 08:57:34;;;;;;;19.87;7.47;;;4.10;99.90;;;;;;4141623;28;20337;-60
2022/01/15 08:59:35;;;;;;;14.67;5.47;;;4.20;99.90;;;;;;4140506;28;20272;-59
2022/01/15 09:01:37;;;;;;;8.60;4.27;;;4.10;99.90;;;;;;4139532;28;20299;-56
2022/01/15 09:03:42;;;;;;;12.63;4.40;;;4.20;99.90;;;;;;4140718;28;20275;-60
2022/01/15 09:05:43;;;;;;;10.33;3.70;;;4.00;99.90;;;;;;4141122;28;20743;-61
2022/01/15 09:07:44;;;;;;;6.27;2.30;;;3.80;99.90;;;;;;4140085;28;20287;-58
2022/01/15 09:09:45;;;;;;;10.93;1.97;;;3.80;99.90;;;;;;4140486;28;20271;-57
2022/01/15 09:11:47;;;;;;;10.20;3.40;;;3.80;99.90;;;;;;4140321;28;21054;-61
2022/01/15 09:13:48;;;;;;;7.30;2.60;;;3.80;99.90;;;;;;4141872;28;20723;-56
2022/01/15 09:15:50;;;;;;;14.33;2.53;;;3.90;99.90;;;;;;4140692;28;20372;-58
2022/01/15 09:17:51;;;;;;;10.03;2.63;;;4.00;99.90;;;;;;4133716;28;20300;-62
2022/01/15 09:19:53;;;;;;;10.03;1.97;;;4.10;99.90;;;;;;4128331;28;20318;-60
2022/01/15 09:21:55;;;;;;;6.87;2.10;;;4.10;99.90;;;;;;4139435;28;20303;-62
2022/01/15 09:23:56;;;;;;;13.33;2.23;;;4.00;99.70;;;;;;4140082;28;20322;-60
2022/01/15 09:25:59;;;;;;;6.67;2.00;;;3.90;99.50;;;;;;4126684;28;20369;-55
2022/01/15 09:30:19;;;;;;;8.90;2.10;;;3.70;99.10;;;;;;4130774;28;20319;-62
2022/01/15 09:32:20;;;;;;;8.03;2.83;;;3.70;99.20;;;;;;4130149;28;20374;-59
2022/01/15 09:34:22;;;;;;;6.83;2.90;;;3.70;99.30;;;;;;4125256;28;20330;-69
2022/01/15 09:36:23;;;;;;;12.23;1.97;;;3.70;99.20;;;;;;4132672;28;20303;-66
2022/01/15 09:38:24;;;;;;;10.90;2.23;;;3.70;99.00;;;;;;4140171;28;20256;-60
2022/01/15 09:40:27;;;;;;;4.67;2.63;;;3.70;99.10;;;;;;4139825;28;20255;-72
2022/01/15 09:42:28;;;;;;;6.70;2.00;;;3.60;98.80;;;;;;4124710;28;21126;-59
2022/01/15 09:44:31;;;;;;;8.30;2.27;;;3.50;98.70;;;;;;4128760;28;20277;-61
2022/01/15 09:46:33;;;;;;;8.97;2.30;;;3.60;99.20;;;;;;4126739;28;20306;-63
2022/01/15 09:48:38;;;;;;;7.00;1.93;;;3.70;98.90;;;;;;4125820;28;20350;-62
2022/01/15 09:50:42;;;;;;;8.90;2.37;;;3.60;98.70;;;;;;4126235;28;20372;-60
2022/01/15 09:52:44;;;;;;;5.83;2.07;;;3.60;98.70;;;;;;4134972;28;20318;-60
2022/01/15 09:54:45;;;;;;;7.90;2.97;;;3.60;98.40;;;;;;4140215;28;20279;-61
2022/01/15 09:56:48;;;;;;;4.83;2.50;;;3.50;98.10;;;;;;4137748;28;20299;-61
2022/01/15 09:58:50;;;;;;;7.43;2.73;;;3.50;97.70;;;;;;4137606;28;20275;-66
2022/01/15 10:00:51;;;;;;;7.77;2.67;;;3.60;98.20;;;;;;4140149;28;20290;-63
2022/01/15 10:02:53;;;;;;;6.03;2.13;;;3.60;98.20;;;;;;4129450;28;20287;-61
2022/01/15 10:04:54;;;;;;;7.93;2.03;;;3.70;98.20;;;;;;4124648;28;20339;-59
2022/01/15 10:07:16;;;;;;;6.47;2.43;;;3.60;97.70;;;;;;4135252;28;20345;-59
2022/01/15 10:09:22;;;;;;;10.30;2.60;;;3.60;97.70;;;;;;4139915;28;20275;-61
2022/01/15 10:11:43;;;;;;;5.73;2.20;;;3.70;97.60;;;;;;4130872;28;20687;-59
2022/01/15 10:13:46;;;;;;;8.83;2.60;;;3.80;97.30;;;;;;4136573;28;20267;-65
2022/01/15 10:16:07;;;;;;;9.60;3.00;;;3.70;97.40;;;;;;4135198;28;20268;-61
2022/01/15 10:18:18;;;;;;;;;;;3.60;97.20;;;;;;4124503;28;20351;-61
2022/01/15 10:20:23;;;;;;;8.68;2.75;;;3.60;97.20;;;;;;4130574;28;19979;-61
2022/01/15 10:22:27;;;;;;;7.33;3.00;;;3.60;97.70;;;;;;4137490;28;20077;-59
2022/01/15 10:24:28;;;;;;;8.37;2.37;;;3.60;97.70;;;;;;4139006;28;20306;-60
2022/01/15 10:26:36;;;;;;;73.17;29.00;;;3.60;97.90;;;;;;4138880;28;20275;-63
2022/01/15 10:28:52;;;;;;;9.00;3.00;;;3.50;98.00;;;;;;4139120;28;20283;-59
2022/01/15 10:30:53;;;;;;;8.97;2.53;;;3.50;98.30;;;;;;4135167;28;20287;-61
2022/01/15 10:33:01;;;;;;;12.40;2.53;;;3.60;98.20;;;;;;4141144;28;20434;-63
2022/01/15 10:35:14;;;;;;;6.90;2.47;;;3.70;98.30;;;;;;4139212;28;20671;-60
2022/01/15 10:37:19;;;;;;;6.40;2.13;;;3.70;98.00;;;;;;4127256;28;20373;-61
2022/01/15 10:39:21;;;;;;;8.43;2.50;;;3.70;97.80;;;;;;4133926;28;20330;-59
2022/01/15 10:41:36;;;;;;;8.97;2.73;;;3.80;98.00;;;;;;4140156;28;20310;-60
2022/01/15 10:43:37;;;;;;;8.60;2.57;;;3.90;97.80;;;;;;4126942;28;20335;-60
2022/01/15 10:45:52;;;;;;;6.37;2.10;;;4.00;97.70;;;;;;4125183;28;20338;-61
2022/01/15 10:47:56;;;;;;;8.40;2.37;;;3.90;96.80;;;;;;4123104;28;20323;-58
2022/01/15 10:50:02;;;;;;;7.73;1.83;;;3.90;97.30;;;;;;4125146;28;20834;-60
2022/01/15 10:52:10;;;;;;;6.23;3.67;;;3.90;96.60;;;;;;4122961;28;20330;-61
2022/01/15 10:54:12;;;;;;;4.83;1.93;;;3.80;96.60;;;;;;4122355;28;20323;-58
2022/01/15 10:56:15;;;;;;;5.03;2.13;;;3.80;96.60;;;;;;4122382;28;20375;-60
2022/01/15 10:58:17;;;;;;;4.43;2.43;;;3.80;96.60;;;;;;4124571;28;20276;-60
2022/01/15 11:00:25;;;;;;;7.70;1.90;;;3.80;96.70;;;;;;4123248;28;20331;-61
2022/01/15 11:02:27;;;;;;;9.47;1.93;;;3.70;96.60;;;;;;4124288;28;20279;-60